sensor_id;sensor_type;location;lat;lon;timestamp;P1;durP1;ratioP1;P2;durP2;ratioP2
73699;SDS011;62005;50.082;8.988;2022-08-19T00:01:42;10.82;;;7.68;;
73699;SDS011;62005;50.082;8.988;2022-08-19T00:04:10;13.13;;;7.65;;
73699;SDS011;62005;50.082;8.988;2022-08-19T00:06:37;13.23;;;7.85;;
73699;SDS011;62005;50.082;8.988;2022-08-19T00:09:05;14.68;;;7.70;;
73699;SDS011;62005;50.082;8.988;2022-08-19T00:11:32;10.98;;;7.15;;
73699;SDS011;62005;50.082;8.988;2022-08-19T00:14:02;12.02;;;7.78;;
73699;SDS011;62005;50.082;8.988;2022-08-19T00:16:29;15.82;;;8.50;;
73699;SDS011;62005;50.082;8.988;2022-08-19T00:18:54;14.17;;;7.87;;
73699;SDS011;62005;50.082;8.988;2022-08-19T00:21:23;11.90;;;7.68;;
73699;SDS011;62005;50.082;8.988;2022-08-19T00:23:49;13.45;;;8.00;;
73699;SDS011;62005;50.082;8.988;2022-08-19T00:26:15;13.50;;;8.18;;
73699;SDS011;62005;50.082;8.988;2022-08-19T00:28:40;12.98;;;8.45;;
73699;SDS011;62005;50.082;8.988;2022-08-19T00:31:06;13.63;;;7.63;;
73699;SDS011;62005;50.082;8.988;2022-08-19T00:33:34;12.82;;;7.78;;
73699;SDS011;62005;50.082;8.988;2022-08-19T00:36:00;12.73;;;8.05;;
73699;SDS011;62005;50.082;8.988;2022-08-19T00:38:29;13.00;;;8.30;;
73699;SDS011;62005;50.082;8.988;2022-08-19T00:40:55;13.23;;;7.80;;
73699;SDS011;62005;50.082;8.988;2022-08-19T00:43:22;13.70;;;7.90;;
73699;SDS011;62005;50.082;8.988;2022-08-19T00:45:49;13.93;;;7.88;;
73699;SDS011;62005;50.082;8.988;2022-08-19T00:48:16;14.18;;;8.35;;
73699;SDS011;62005;50.082;8.988;2022-08-19T00:50:43;12.57;;;7.88;;
73699;SDS011;62005;50.082;8.988;2022-08-19T00:53:13;15.80;;;8.82;;
73699;SDS011;62005;50.082;8.988;2022-08-19T00:55:47;14.43;;;8.02;;
73699;SDS011;62005;50.082;8.988;2022-08-19T00:58:20;13.98;;;8.35;;
73699;SDS011;62005;50.082;8.988;2022-08-19T01:00:49;11.70;;;7.95;;
73699;SDS011;62005;50.082;8.988;2022-08-19T01:03:16;15.30;;;8.27;;
73699;SDS011;62005;50.082;8.988;2022-08-19T01:05:43;12.38;;;7.65;;
73699;SDS011;62005;50.082;8.988;2022-08-19T01:08:10;13.55;;;8.50;;
73699;SDS011;62005;50.082;8.988;2022-08-19T01:10:41;15.20;;;8.07;;
73699;SDS011;62005;50.082;8.988;2022-08-19T01:13:09;12.68;;;8.40;;
73699;SDS011;62005;50.082;8.988;2022-08-19T01:15:40;14.15;;;7.35;;
73699;SDS011;62005;50.082;8.988;2022-08-19T01:18:09;13.50;;;7.65;;
73699;SDS011;62005;50.082;8.988;2022-08-19T01:20:36;14.63;;;8.20;;
73699;SDS011;62005;50.082;8.988;2022-08-19T01:23:03;11.82;;;7.25;;
73699;SDS011;62005;50.082;8.988;2022-08-19T01:25:31;14.85;;;7.72;;
73699;SDS011;62005;50.082;8.988;2022-08-19T01:28:00;14.57;;;8.35;;
73699;SDS011;62005;50.082;8.988;2022-08-19T01:30:29;14.68;;;8.10;;
73699;SDS011;62005;50.082;8.988;2022-08-19T01:32:57;13.60;;;7.63;;
73699;SDS011;62005;50.082;8.988;2022-08-19T01:35:23;11.55;;;7.47;;
73699;SDS011;62005;50.082;8.988;2022-08-19T01:37:53;11.10;;;7.30;;
73699;SDS011;62005;50.082;8.988;2022-08-19T01:40:25;10.35;;;6.95;;
73699;SDS011;62005;50.082;8.988;2022-08-19T01:42:55;13.05;;;7.75;;
73699;SDS011;62005;50.082;8.988;2022-08-19T01:45:22;13.13;;;7.05;;
73699;SDS011;62005;50.082;8.988;2022-08-19T01:47:50;11.80;;;7.35;;
73699;SDS011;62005;50.082;8.988;2022-08-19T01:50:16;12.95;;;7.30;;
73699;SDS011;62005;50.082;8.988;2022-08-19T01:52:42;11.60;;;7.38;;
73699;SDS011;62005;50.082;8.988;2022-08-19T01:55:10;13.68;;;8.05;;
73699;SDS011;62005;50.082;8.988;2022-08-19T01:57:38;13.15;;;6.78;;
73699;SDS011;62005;50.082;8.988;2022-08-19T02:00:07;11.23;;;7.05;;
73699;SDS011;62005;50.082;8.988;2022-08-19T02:02:35;12.85;;;7.32;;
73699;SDS011;62005;50.082;8.988;2022-08-19T02:05:01;10.93;;;6.70;;
73699;SDS011;62005;50.082;8.988;2022-08-19T02:07:26;12.35;;;7.43;;
73699;SDS011;62005;50.082;8.988;2022-08-19T02:09:53;11.95;;;7.45;;
73699;SDS011;62005;50.082;8.988;2022-08-19T02:12:20;12.02;;;7.82;;
73699;SDS011;62005;50.082;8.988;2022-08-19T02:14:45;12.57;;;7.40;;
73699;SDS011;62005;50.082;8.988;2022-08-19T02:17:11;11.05;;;7.13;;
73699;SDS011;62005;50.082;8.988;2022-08-19T02:19:36;12.95;;;7.93;;
73699;SDS011;62005;50.082;8.988;2022-08-19T02:22:02;11.18;;;6.63;;
73699;SDS011;62005;50.082;8.988;2022-08-19T02:24:27;10.55;;;6.95;;
73699;SDS011;62005;50.082;8.988;2022-08-19T02:26:53;11.40;;;7.10;;
73699;SDS011;62005;50.082;8.988;2022-08-19T02:29:18;11.82;;;7.32;;
73699;SDS011;62005;50.082;8.988;2022-08-19T02:31:44;12.18;;;6.35;;
73699;SDS011;62005;50.082;8.988;2022-08-19T02:34:10;9.77;;;6.63;;
73699;SDS011;62005;50.082;8.988;2022-08-19T02:36:35;11.53;;;7.07;;
73699;SDS011;62005;50.082;8.988;2022-08-19T02:39:00;14.17;;;7.57;;
73699;SDS011;62005;50.082;8.988;2022-08-19T02:41:27;12.57;;;6.93;;
73699;SDS011;62005;50.082;8.988;2022-08-19T02:43:56;11.40;;;6.38;;
73699;SDS011;62005;50.082;8.988;2022-08-19T02:46:26;11.77;;;6.72;;
73699;SDS011;62005;50.082;8.988;2022-08-19T02:48:55;12.10;;;7.13;;
73699;SDS011;62005;50.082;8.988;2022-08-19T02:51:31;13.18;;;8.25;;
73699;SDS011;62005;50.082;8.988;2022-08-19T02:53:58;12.73;;;6.88;;
73699;SDS011;62005;50.082;8.988;2022-08-19T02:56:25;10.00;;;6.40;;
73699;SDS011;62005;50.082;8.988;2022-08-19T02:58:52;11.60;;;7.45;;
73699;SDS011;62005;50.082;8.988;2022-08-19T03:01:28;11.00;;;7.47;;
73699;SDS011;62005;50.082;8.988;2022-08-19T03:03:56;12.40;;;7.68;;
73699;SDS011;62005;50.082;8.988;2022-08-19T03:06:22;11.35;;;7.30;;
73699;SDS011;62005;50.082;8.988;2022-08-19T03:08:48;13.65;;;7.40;;
73699;SDS011;62005;50.082;8.988;2022-08-19T03:11:21;11.82;;;7.13;;
73699;SDS011;62005;50.082;8.988;2022-08-19T03:13:49;11.38;;;7.22;;
73699;SDS011;62005;50.082;8.988;2022-08-19T03:18:41;10.27;;;6.65;;
73699;SDS011;62005;50.082;8.988;2022-08-19T03:21:06;12.52;;;6.97;;
73699;SDS011;62005;50.082;8.988;2022-08-19T03:23:32;13.05;;;7.30;;
73699;SDS011;62005;50.082;8.988;2022-08-19T03:25:58;11.05;;;7.18;;
73699;SDS011;62005;50.082;8.988;2022-08-19T03:28:23;13.45;;;7.72;;
73699;SDS011;62005;50.082;8.988;2022-08-19T03:31:22;13.07;;;7.47;;
73699;SDS011;62005;50.082;8.988;2022-08-19T03:33:42;13.55;;;7.32;;
73699;SDS011;62005;50.082;8.988;2022-08-19T03:36:10;13.85;;;7.20;;
73699;SDS011;62005;50.082;8.988;2022-08-19T03:38:38;12.30;;;6.82;;
73699;SDS011;62005;50.082;8.988;2022-08-19T03:41:08;11.20;;;7.25;;
73699;SDS011;62005;50.082;8.988;2022-08-19T03:43:36;13.60;;;7.60;;
73699;SDS011;62005;50.082;8.988;2022-08-19T03:46:05;11.48;;;6.93;;
73699;SDS011;62005;50.082;8.988;2022-08-19T03:48:32;12.35;;;6.70;;
73699;SDS011;62005;50.082;8.988;2022-08-19T03:50:58;11.00;;;6.55;;
73699;SDS011;62005;50.082;8.988;2022-08-19T03:53:25;13.65;;;7.05;;
73699;SDS011;62005;50.082;8.988;2022-08-19T03:55:52;12.10;;;6.88;;
73699;SDS011;62005;50.082;8.988;2022-08-19T03:58:18;10.60;;;6.25;;
73699;SDS011;62005;50.082;8.988;2022-08-19T04:00:44;9.95;;;6.35;;
73699;SDS011;62005;50.082;8.988;2022-08-19T04:03:10;11.45;;;7.22;;
73699;SDS011;62005;50.082;8.988;2022-08-19T04:05:35;10.20;;;6.45;;
73699;SDS011;62005;50.082;8.988;2022-08-19T04:08:00;10.38;;;6.78;;
73699;SDS011;62005;50.082;8.988;2022-08-19T04:10:26;10.98;;;6.40;;
73699;SDS011;62005;50.082;8.988;2022-08-19T04:12:53;11.35;;;6.47;;
73699;SDS011;62005;50.082;8.988;2022-08-19T04:15:18;11.10;;;7.05;;
73699;SDS011;62005;50.082;8.988;2022-08-19T04:17:44;11.50;;;6.30;;
73699;SDS011;62005;50.082;8.988;2022-08-19T04:20:09;10.77;;;6.57;;
73699;SDS011;62005;50.082;8.988;2022-08-19T04:22:35;12.80;;;6.80;;
73699;SDS011;62005;50.082;8.988;2022-08-19T04:25:00;9.60;;;5.70;;
73699;SDS011;62005;50.082;8.988;2022-08-19T04:27:25;11.55;;;6.85;;
73699;SDS011;62005;50.082;8.988;2022-08-19T04:29:51;11.55;;;6.53;;
73699;SDS011;62005;50.082;8.988;2022-08-19T04:32:17;13.48;;;7.22;;
73699;SDS011;62005;50.082;8.988;2022-08-19T04:34:42;10.20;;;6.40;;
73699;SDS011;62005;50.082;8.988;2022-08-19T04:37:08;11.47;;;6.93;;
73699;SDS011;62005;50.082;8.988;2022-08-19T04:39:37;9.00;;;5.28;;
73699;SDS011;62005;50.082;8.988;2022-08-19T04:42:21;11.30;;;6.35;;
73699;SDS011;62005;50.082;8.988;2022-08-19T04:45:09;10.82;;;5.93;;
73699;SDS011;62005;50.082;8.988;2022-08-19T04:47:37;10.68;;;6.32;;
73699;SDS011;62005;50.082;8.988;2022-08-19T04:50:06;11.98;;;6.07;;
73699;SDS011;62005;50.082;8.988;2022-08-19T04:52:36;12.85;;;5.72;;
73699;SDS011;62005;50.082;8.988;2022-08-19T04:55:01;8.13;;;5.43;;
73699;SDS011;62005;50.082;8.988;2022-08-19T04:57:27;8.68;;;5.68;;
73699;SDS011;62005;50.082;8.988;2022-08-19T04:59:56;11.90;;;5.67;;
73699;SDS011;62005;50.082;8.988;2022-08-19T05:02:22;9.45;;;5.75;;
73699;SDS011;62005;50.082;8.988;2022-08-19T05:04:51;9.38;;;5.90;;
73699;SDS011;62005;50.082;8.988;2022-08-19T05:07:22;8.57;;;5.78;;
73699;SDS011;62005;50.082;8.988;2022-08-19T05:09:47;8.37;;;5.10;;
73699;SDS011;62005;50.082;8.988;2022-08-19T05:12:13;9.15;;;5.55;;
73699;SDS011;62005;50.082;8.988;2022-08-19T05:14:38;14.50;;;5.28;;
73699;SDS011;62005;50.082;8.988;2022-08-19T05:17:03;9.63;;;5.97;;
73699;SDS011;62005;50.082;8.988;2022-08-19T05:19:29;10.33;;;5.30;;
73699;SDS011;62005;50.082;8.988;2022-08-19T05:22:12;11.25;;;6.50;;
73699;SDS011;62005;50.082;8.988;2022-08-19T05:24:56;10.40;;;5.22;;
73699;SDS011;62005;50.082;8.988;2022-08-19T05:27:22;10.17;;;5.83;;
73699;SDS011;62005;50.082;8.988;2022-08-19T05:29:47;12.23;;;6.10;;
73699;SDS011;62005;50.082;8.988;2022-08-19T05:32:12;8.83;;;4.97;;
73699;SDS011;62005;50.082;8.988;2022-08-19T05:34:38;9.43;;;4.97;;
73699;SDS011;62005;50.082;8.988;2022-08-19T05:37:03;8.17;;;5.33;;
73699;SDS011;62005;50.082;8.988;2022-08-19T05:39:30;9.18;;;5.40;;
73699;SDS011;62005;50.082;8.988;2022-08-19T05:41:59;10.00;;;5.45;;
73699;SDS011;62005;50.082;8.988;2022-08-19T05:44:28;10.63;;;5.78;;
73699;SDS011;62005;50.082;8.988;2022-08-19T05:46:56;11.07;;;5.95;;
73699;SDS011;62005;50.082;8.988;2022-08-19T05:49:23;9.07;;;5.38;;
73699;SDS011;62005;50.082;8.988;2022-08-19T05:51:50;9.00;;;5.68;;
73699;SDS011;62005;50.082;8.988;2022-08-19T05:54:16;8.45;;;5.22;;
73699;SDS011;62005;50.082;8.988;2022-08-19T05:56:43;7.55;;;4.95;;
73699;SDS011;62005;50.082;8.988;2022-08-19T05:59:09;8.55;;;5.43;;
73699;SDS011;62005;50.082;8.988;2022-08-19T06:01:39;7.15;;;4.35;;
73699;SDS011;62005;50.082;8.988;2022-08-19T06:04:06;10.38;;;5.43;;
73699;SDS011;62005;50.082;8.988;2022-08-19T06:06:33;8.65;;;5.22;;
73699;SDS011;62005;50.082;8.988;2022-08-19T06:09:03;10.38;;;5.07;;
73699;SDS011;62005;50.082;8.988;2022-08-19T06:11:39;11.43;;;5.40;;
73699;SDS011;62005;50.082;8.988;2022-08-19T06:14:09;9.20;;;5.78;;
73699;SDS011;62005;50.082;8.988;2022-08-19T06:16:40;12.88;;;5.25;;
73699;SDS011;62005;50.082;8.988;2022-08-19T06:19:09;7.93;;;4.88;;
73699;SDS011;62005;50.082;8.988;2022-08-19T06:21:41;8.82;;;5.13;;
73699;SDS011;62005;50.082;8.988;2022-08-19T06:24:09;8.38;;;5.05;;
73699;SDS011;62005;50.082;8.988;2022-08-19T06:26:36;7.63;;;5.00;;
73699;SDS011;62005;50.082;8.988;2022-08-19T06:29:05;8.68;;;5.10;;
73699;SDS011;62005;50.082;8.988;2022-08-19T06:31:32;8.10;;;4.85;;
73699;SDS011;62005;50.082;8.988;2022-08-19T06:33:59;7.95;;;4.82;;
73699;SDS011;62005;50.082;8.988;2022-08-19T06:36:29;9.32;;;4.90;;
73699;SDS011;62005;50.082;8.988;2022-08-19T06:39:08;9.07;;;5.20;;
73699;SDS011;62005;50.082;8.988;2022-08-19T06:41:38;6.60;;;4.70;;
73699;SDS011;62005;50.082;8.988;2022-08-19T06:44:06;8.05;;;3.70;;
73699;SDS011;62005;50.082;8.988;2022-08-19T06:48:58;7.63;;;4.47;;
73699;SDS011;62005;50.082;8.988;2022-08-19T06:51:24;7.22;;;4.25;;
73699;SDS011;62005;50.082;8.988;2022-08-19T06:53:51;8.23;;;4.60;;
73699;SDS011;62005;50.082;8.988;2022-08-19T06:56:23;6.60;;;4.35;;
73699;SDS011;62005;50.082;8.988;2022-08-19T06:58:55;8.10;;;4.53;;
73699;SDS011;62005;50.082;8.988;2022-08-19T07:01:20;9.20;;;4.72;;
73699;SDS011;62005;50.082;8.988;2022-08-19T07:03:45;7.80;;;4.03;;
73699;SDS011;62005;50.082;8.988;2022-08-19T07:06:13;8.68;;;5.30;;
73699;SDS011;62005;50.082;8.988;2022-08-19T07:08:42;6.55;;;4.28;;
73699;SDS011;62005;50.082;8.988;2022-08-19T07:11:10;8.07;;;4.25;;
73699;SDS011;62005;50.082;8.988;2022-08-19T07:13:38;7.20;;;3.90;;
73699;SDS011;62005;50.082;8.988;2022-08-19T07:16:07;6.97;;;4.45;;
73699;SDS011;62005;50.082;8.988;2022-08-19T07:18:35;8.00;;;4.85;;
73699;SDS011;62005;50.082;8.988;2022-08-19T07:21:09;8.15;;;4.10;;
73699;SDS011;62005;50.082;8.988;2022-08-19T07:23:36;7.30;;;4.18;;
73699;SDS011;62005;50.082;8.988;2022-08-19T07:26:08;7.32;;;4.18;;
73699;SDS011;62005;50.082;8.988;2022-08-19T07:28:37;5.47;;;3.72;;
73699;SDS011;62005;50.082;8.988;2022-08-19T07:31:04;7.25;;;4.00;;
73699;SDS011;62005;50.082;8.988;2022-08-19T07:33:33;6.93;;;4.07;;
73699;SDS011;62005;50.082;8.988;2022-08-19T07:36:04;8.52;;;4.65;;
73699;SDS011;62005;50.082;8.988;2022-08-19T07:38:32;7.10;;;4.03;;
73699;SDS011;62005;50.082;8.988;2022-08-19T07:40:59;6.75;;;4.20;;
73699;SDS011;62005;50.082;8.988;2022-08-19T07:43:25;7.10;;;3.97;;
73699;SDS011;62005;50.082;8.988;2022-08-19T07:45:52;8.30;;;4.20;;
73699;SDS011;62005;50.082;8.988;2022-08-19T07:48:21;4.85;;;3.45;;
73699;SDS011;62005;50.082;8.988;2022-08-19T07:50:50;5.88;;;3.38;;
73699;SDS011;62005;50.082;8.988;2022-08-19T07:53:15;6.35;;;3.70;;
73699;SDS011;62005;50.082;8.988;2022-08-19T07:55:41;6.45;;;2.90;;
73699;SDS011;62005;50.082;8.988;2022-08-19T07:58:06;7.88;;;2.67;;
73699;SDS011;62005;50.082;8.988;2022-08-19T08:00:32;3.97;;;2.50;;
73699;SDS011;62005;50.082;8.988;2022-08-19T08:02:58;8.05;;;2.72;;
73699;SDS011;62005;50.082;8.988;2022-08-19T08:05:24;4.55;;;2.50;;
73699;SDS011;62005;50.082;8.988;2022-08-19T08:08:08;4.07;;;2.45;;
73699;SDS011;62005;50.082;8.988;2022-08-19T08:10:52;4.60;;;2.70;;
73699;SDS011;62005;50.082;8.988;2022-08-19T08:13:17;6.87;;;2.60;;
73699;SDS011;62005;50.082;8.988;2022-08-19T08:15:44;6.95;;;3.17;;
73699;SDS011;62005;50.082;8.988;2022-08-19T08:18:19;5.85;;;2.60;;
73699;SDS011;62005;50.082;8.988;2022-08-19T08:20:45;4.95;;;2.92;;
73699;SDS011;62005;50.082;8.988;2022-08-19T08:23:11;5.78;;;2.50;;
73699;SDS011;62005;50.082;8.988;2022-08-19T08:28:20;5.43;;;2.40;;
73699;SDS011;62005;50.082;8.988;2022-08-19T08:30:47;6.30;;;3.08;;
73699;SDS011;62005;50.082;8.988;2022-08-19T08:33:18;5.68;;;2.83;;
73699;SDS011;62005;50.082;8.988;2022-08-19T08:35:46;6.88;;;3.00;;
73699;SDS011;62005;50.082;8.988;2022-08-19T08:38:12;5.07;;;2.05;;
73699;SDS011;62005;50.082;8.988;2022-08-19T08:40:46;4.35;;;2.65;;
73699;SDS011;62005;50.082;8.988;2022-08-19T08:45:52;3.97;;;2.08;;
73699;SDS011;62005;50.082;8.988;2022-08-19T08:48:27;3.85;;;1.83;;
73699;SDS011;62005;50.082;8.988;2022-08-19T08:51:02;7.40;;;1.98;;
73699;SDS011;62005;50.082;8.988;2022-08-19T08:53:30;3.70;;;1.50;;
73699;SDS011;62005;50.082;8.988;2022-08-19T08:55:57;3.78;;;1.20;;
73699;SDS011;62005;50.082;8.988;2022-08-19T09:04:05;4.88;;;1.80;;
73699;SDS011;62005;50.082;8.988;2022-08-19T09:09:02;3.00;;;1.25;;
73699;SDS011;62005;50.082;8.988;2022-08-19T09:16:45;1.92;;;1.02;;
73699;SDS011;62005;50.082;8.988;2022-08-19T09:19:11;2.88;;;0.95;;
73699;SDS011;62005;50.082;8.988;2022-08-19T09:21:37;2.20;;;1.10;;
73699;SDS011;62005;50.082;8.988;2022-08-19T09:26:51;3.05;;;0.93;;
73699;SDS011;62005;50.082;8.988;2022-08-19T09:31:44;2.05;;;0.82;;
73699;SDS011;62005;50.082;8.988;2022-08-19T09:34:10;4.85;;;1.20;;
73699;SDS011;62005;50.082;8.988;2022-08-19T09:36:35;2.45;;;1.02;;
73699;SDS011;62005;50.082;8.988;2022-08-19T09:39:04;5.22;;;1.10;;
73699;SDS011;62005;50.082;8.988;2022-08-19T09:41:32;3.85;;;1.63;;
73699;SDS011;62005;50.082;8.988;2022-08-19T09:46:38;7.25;;;1.25;;
73699;SDS011;62005;50.082;8.988;2022-08-19T09:49:04;2.67;;;1.02;;
73699;SDS011;62005;50.082;8.988;2022-08-19T09:51:31;2.25;;;0.90;;
73699;SDS011;62005;50.082;8.988;2022-08-19T09:54:01;2.70;;;1.10;;
73699;SDS011;62005;50.082;8.988;2022-08-19T09:56:28;3.30;;;1.30;;
73699;SDS011;62005;50.082;8.988;2022-08-19T09:58:54;2.70;;;0.95;;
73699;SDS011;62005;50.082;8.988;2022-08-19T10:01:21;3.75;;;0.82;;
73699;SDS011;62005;50.082;8.988;2022-08-19T10:03:51;3.90;;;1.20;;
73699;SDS011;62005;50.082;8.988;2022-08-19T10:06:19;1.85;;;0.73;;
73699;SDS011;62005;50.082;8.988;2022-08-19T10:08:48;3.47;;;1.15;;
73699;SDS011;62005;50.082;8.988;2022-08-19T10:11:15;2.28;;;0.68;;
73699;SDS011;62005;50.082;8.988;2022-08-19T10:13:42;3.20;;;1.05;;
73699;SDS011;62005;50.082;8.988;2022-08-19T10:16:13;2.83;;;1.05;;
73699;SDS011;62005;50.082;8.988;2022-08-19T10:21:15;4.40;;;1.25;;
73699;SDS011;62005;50.082;8.988;2022-08-19T10:23:44;3.22;;;1.10;;
73699;SDS011;62005;50.082;8.988;2022-08-19T10:26:12;2.30;;;1.02;;
73699;SDS011;62005;50.082;8.988;2022-08-19T10:28:40;3.80;;;1.15;;
73699;SDS011;62005;50.082;8.988;2022-08-19T10:31:10;3.50;;;1.13;;
73699;SDS011;62005;50.082;8.988;2022-08-19T10:33:38;2.63;;;1.17;;
73699;SDS011;62005;50.082;8.988;2022-08-19T10:36:10;3.17;;;1.05;;
73699;SDS011;62005;50.082;8.988;2022-08-19T10:38:44;3.83;;;1.10;;
73699;SDS011;62005;50.082;8.988;2022-08-19T10:41:16;3.15;;;1.20;;
73699;SDS011;62005;50.082;8.988;2022-08-19T10:43:43;4.18;;;1.02;;
73699;SDS011;62005;50.082;8.988;2022-08-19T10:46:12;3.20;;;1.02;;
73699;SDS011;62005;50.082;8.988;2022-08-19T10:48:40;2.90;;;1.08;;
73699;SDS011;62005;50.082;8.988;2022-08-19T10:51:08;5.45;;;1.10;;
73699;SDS011;62005;50.082;8.988;2022-08-19T10:53:54;3.58;;;1.02;;
73699;SDS011;62005;50.082;8.988;2022-08-19T10:56:20;4.80;;;1.35;;
73699;SDS011;62005;50.082;8.988;2022-08-19T10:59:06;4.65;;;1.17;;
73699;SDS011;62005;50.082;8.988;2022-08-19T11:01:31;2.63;;;1.15;;
73699;SDS011;62005;50.082;8.988;2022-08-19T11:04:03;4.95;;;1.00;;
73699;SDS011;62005;50.082;8.988;2022-08-19T11:06:33;4.72;;;1.23;;
73699;SDS011;62005;50.082;8.988;2022-08-19T11:08:58;4.50;;;0.90;;
73699;SDS011;62005;50.082;8.988;2022-08-19T11:13:53;3.88;;;0.85;;
73699;SDS011;62005;50.082;8.988;2022-08-19T11:16:20;3.25;;;1.00;;
73699;SDS011;62005;50.082;8.988;2022-08-19T11:18:49;3.03;;;1.02;;
73699;SDS011;62005;50.082;8.988;2022-08-19T11:21:18;2.40;;;1.15;;
73699;SDS011;62005;50.082;8.988;2022-08-19T11:23:47;3.25;;;1.05;;
73699;SDS011;62005;50.082;8.988;2022-08-19T11:26:15;2.08;;;1.00;;
73699;SDS011;62005;50.082;8.988;2022-08-19T11:28:41;2.08;;;0.82;;
73699;SDS011;62005;50.082;8.988;2022-08-19T11:31:15;2.85;;;1.20;;
73699;SDS011;62005;50.082;8.988;2022-08-19T11:33:42;2.00;;;0.77;;
73699;SDS011;62005;50.082;8.988;2022-08-19T11:36:08;3.38;;;1.10;;
73699;SDS011;62005;50.082;8.988;2022-08-19T11:38:35;2.33;;;1.10;;
73699;SDS011;62005;50.082;8.988;2022-08-19T11:41:03;1.70;;;0.80;;
73699;SDS011;62005;50.082;8.988;2022-08-19T11:43:32;2.55;;;0.80;;
73699;SDS011;62005;50.082;8.988;2022-08-19T11:45:58;3.08;;;1.02;;
73699;SDS011;62005;50.082;8.988;2022-08-19T11:48:24;6.57;;;1.05;;
73699;SDS011;62005;50.082;8.988;2022-08-19T11:50:51;2.30;;;0.82;;
73699;SDS011;62005;50.082;8.988;2022-08-19T11:53:20;3.28;;;0.90;;
73699;SDS011;62005;50.082;8.988;2022-08-19T11:58:16;3.70;;;0.80;;
73699;SDS011;62005;50.082;8.988;2022-08-19T12:00:43;3.35;;;0.93;;
73699;SDS011;62005;50.082;8.988;2022-08-19T12:03:11;2.53;;;0.82;;
73699;SDS011;62005;50.082;8.988;2022-08-19T12:05:38;1.50;;;0.73;;
73699;SDS011;62005;50.082;8.988;2022-08-19T12:08:04;1.77;;;0.82;;
73699;SDS011;62005;50.082;8.988;2022-08-19T12:10:30;3.78;;;0.73;;
73699;SDS011;62005;50.082;8.988;2022-08-19T12:12:56;2.90;;;1.00;;
73699;SDS011;62005;50.082;8.988;2022-08-19T12:15:22;2.27;;;0.73;;
73699;SDS011;62005;50.082;8.988;2022-08-19T12:17:48;3.45;;;0.80;;
73699;SDS011;62005;50.082;8.988;2022-08-19T12:20:16;2.83;;;0.73;;
73699;SDS011;62005;50.082;8.988;2022-08-19T12:22:42;2.30;;;0.82;;
73699;SDS011;62005;50.082;8.988;2022-08-19T12:25:11;2.70;;;0.90;;
73699;SDS011;62005;50.082;8.988;2022-08-19T12:27:37;1.73;;;0.55;;
73699;SDS011;62005;50.082;8.988;2022-08-19T12:30:04;2.72;;;0.60;;
73699;SDS011;62005;50.082;8.988;2022-08-19T12:32:30;1.73;;;0.70;;
73699;SDS011;62005;50.082;8.988;2022-08-19T12:34:56;3.40;;;1.02;;
73699;SDS011;62005;50.082;8.988;2022-08-19T12:37:21;1.50;;;0.80;;
73699;SDS011;62005;50.082;8.988;2022-08-19T12:39:47;2.33;;;0.73;;
73699;SDS011;62005;50.082;8.988;2022-08-19T12:44:39;1.90;;;0.63;;
73699;SDS011;62005;50.082;8.988;2022-08-19T12:47:06;3.55;;;0.88;;
73699;SDS011;62005;50.082;8.988;2022-08-19T12:51:59;2.13;;;0.73;;
73699;SDS011;62005;50.082;8.988;2022-08-19T12:54:27;2.78;;;0.98;;
73699;SDS011;62005;50.082;8.988;2022-08-19T12:56:52;3.38;;;0.77;;
73699;SDS011;62005;50.082;8.988;2022-08-19T12:59:19;2.00;;;0.60;;
73699;SDS011;62005;50.082;8.988;2022-08-19T13:01:44;2.33;;;1.60;;
73699;SDS011;62005;50.082;8.988;2022-08-19T13:04:10;3.85;;;1.20;;
73699;SDS011;62005;50.082;8.988;2022-08-19T13:06:40;2.67;;;1.23;;
73699;SDS011;62005;50.082;8.988;2022-08-19T13:09:10;19.20;;;13.07;;
73699;SDS011;62005;50.082;8.988;2022-08-19T13:11:37;7.93;;;5.38;;
73699;SDS011;62005;50.082;8.988;2022-08-19T13:14:03;64.38;;;26.60;;
73699;SDS011;62005;50.082;8.988;2022-08-19T13:16:41;7.22;;;5.78;;
73699;SDS011;62005;50.082;8.988;2022-08-19T13:19:21;9.02;;;3.65;;
73699;SDS011;62005;50.082;8.988;2022-08-19T13:21:52;4.32;;;1.55;;
73699;SDS011;62005;50.082;8.988;2022-08-19T13:24:30;4.60;;;1.60;;
73699;SDS011;62005;50.082;8.988;2022-08-19T13:27:12;2.50;;;1.42;;
73699;SDS011;62005;50.082;8.988;2022-08-19T13:30:07;2.20;;;1.20;;
73699;SDS011;62005;50.082;8.988;2022-08-19T13:32:55;3.17;;;1.67;;
73699;SDS011;62005;50.082;8.988;2022-08-19T13:35:50;3.00;;;1.60;;
73699;SDS011;62005;50.082;8.988;2022-08-19T13:38:22;4.35;;;1.58;;
73699;SDS011;62005;50.082;8.988;2022-08-19T13:40:49;4.05;;;1.88;;
73699;SDS011;62005;50.082;8.988;2022-08-19T13:43:16;3.10;;;1.70;;
73699;SDS011;62005;50.082;8.988;2022-08-19T13:45:45;3.15;;;1.90;;
73699;SDS011;62005;50.082;8.988;2022-08-19T13:48:10;3.13;;;1.77;;
73699;SDS011;62005;50.082;8.988;2022-08-19T13:50:44;2.80;;;1.63;;
73699;SDS011;62005;50.082;8.988;2022-08-19T13:53:12;3.72;;;1.60;;
73699;SDS011;62005;50.082;8.988;2022-08-19T14:01:12;3.20;;;1.52;;
73699;SDS011;62005;50.082;8.988;2022-08-19T14:04:14;3.03;;;1.60;;
73699;SDS011;62005;50.082;8.988;2022-08-19T14:06:40;3.67;;;1.60;;
73699;SDS011;62005;50.082;8.988;2022-08-19T14:09:07;2.83;;;1.92;;
73699;SDS011;62005;50.082;8.988;2022-08-19T14:11:32;3.90;;;1.60;;
73699;SDS011;62005;50.082;8.988;2022-08-19T14:13:58;3.13;;;1.80;;
73699;SDS011;62005;50.082;8.988;2022-08-19T14:16:23;4.82;;;2.05;;
73699;SDS011;62005;50.082;8.988;2022-08-19T14:18:49;3.53;;;2.10;;
73699;SDS011;62005;50.082;8.988;2022-08-19T14:21:17;4.15;;;2.10;;
73699;SDS011;62005;50.082;8.988;2022-08-19T14:23:47;3.35;;;1.60;;
73699;SDS011;62005;50.082;8.988;2022-08-19T14:26:14;3.10;;;1.88;;
73699;SDS011;62005;50.082;8.988;2022-08-19T14:28:42;3.20;;;1.70;;
73699;SDS011;62005;50.082;8.988;2022-08-19T14:31:10;4.65;;;2.03;;
73699;SDS011;62005;50.082;8.988;2022-08-19T14:33:52;4.60;;;2.10;;
73699;SDS011;62005;50.082;8.988;2022-08-19T14:36:19;4.15;;;1.90;;
73699;SDS011;62005;50.082;8.988;2022-08-19T14:38:48;3.33;;;1.88;;
73699;SDS011;62005;50.082;8.988;2022-08-19T14:41:19;3.35;;;2.00;;
73699;SDS011;62005;50.082;8.988;2022-08-19T14:43:49;4.63;;;2.10;;
73699;SDS011;62005;50.082;8.988;2022-08-19T14:46:22;3.58;;;2.28;;
73699;SDS011;62005;50.082;8.988;2022-08-19T14:48:56;6.47;;;2.47;;
73699;SDS011;62005;50.082;8.988;2022-08-19T14:51:23;5.97;;;2.30;;
73699;SDS011;62005;50.082;8.988;2022-08-19T14:53:49;3.80;;;2.20;;
73699;SDS011;62005;50.082;8.988;2022-08-19T14:56:16;3.55;;;2.10;;
73699;SDS011;62005;50.082;8.988;2022-08-19T14:58:45;3.78;;;2.17;;
73699;SDS011;62005;50.082;8.988;2022-08-19T15:01:11;4.35;;;2.30;;
73699;SDS011;62005;50.082;8.988;2022-08-19T15:03:41;3.28;;;2.30;;
73699;SDS011;62005;50.082;8.988;2022-08-19T15:06:08;3.60;;;1.95;;
73699;SDS011;62005;50.082;8.988;2022-08-19T15:08:35;3.10;;;2.00;;
73699;SDS011;62005;50.082;8.988;2022-08-19T15:11:07;3.50;;;1.90;;
73699;SDS011;62005;50.082;8.988;2022-08-19T15:13:39;3.63;;;2.28;;
73699;SDS011;62005;50.082;8.988;2022-08-19T15:16:05;3.35;;;2.10;;
73699;SDS011;62005;50.082;8.988;2022-08-19T15:18:32;3.38;;;2.08;;
73699;SDS011;62005;50.082;8.988;2022-08-19T15:21:00;3.75;;;2.00;;
73699;SDS011;62005;50.082;8.988;2022-08-19T15:23:27;4.47;;;2.30;;
73699;SDS011;62005;50.082;8.988;2022-08-19T15:25:53;3.35;;;2.03;;
73699;SDS011;62005;50.082;8.988;2022-08-19T15:28:20;6.53;;;2.20;;
73699;SDS011;62005;50.082;8.988;2022-08-19T15:30:47;6.40;;;2.78;;
73699;SDS011;62005;50.082;8.988;2022-08-19T15:33:14;2.92;;;1.95;;
73699;SDS011;62005;50.082;8.988;2022-08-19T15:35:41;5.63;;;2.03;;
73699;SDS011;62005;50.082;8.988;2022-08-19T15:38:07;4.25;;;2.00;;
73699;SDS011;62005;50.082;8.988;2022-08-19T15:40:32;6.13;;;2.25;;